sensor_id;sensor_type;location;lat;lon;timestamp;temperature;humidity
5786;DHT22;2919;48.630;9.000;2023-03-02T00:01:43;0.00;99.90
5786;DHT22;2919;48.630;9.000;2023-03-02T00:04:13;0.00;99.90
5786;DHT22;2919;48.630;9.000;2023-03-02T00:06:40;-0.20;99.90
5786;DHT22;2919;48.630;9.000;2023-03-02T00:09:06;-0.20;99.90
5786;DHT22;2919;48.630;9.000;2023-03-02T00:11:33;-0.30;99.90
5786;DHT22;2919;48.630;9.000;2023-03-02T00:13:59;-0.40;99.90
5786;DHT22;2919;48.630;9.000;2023-03-02T00:16:25;-0.40;99.90
5786;DHT22;2919;48.630;9.000;2023-03-02T00:18:51;-0.40;99.90
5786;DHT22;2919;48.630;9.000;2023-03-02T00:21:16;-0.40;99.90
5786;DHT22;2919;48.630;9.000;2023-03-02T00:23:42;-0.50;99.90
5786;DHT22;2919;48.630;9.000;2023-03-02T00:26:08;-0.50;99.90
5786;DHT22;2919;48.630;9.000;2023-03-02T00:28:33;-0.50;99.90
5786;DHT22;2919;48.630;9.000;2023-03-02T00:30:59;-0.60;99.90
5786;DHT22;2919;48.630;9.000;2023-03-02T00:33:27;-0.60;99.90
5786;DHT22;2919;48.630;9.000;2023-03-02T00:35:53;-0.60;99.90
5786;DHT22;2919;48.630;9.000;2023-03-02T00:38:19;-0.70;99.90
5786;DHT22;2919;48.630;9.000;2023-03-02T00:40:45;-0.70;99.90
5786;DHT22;2919;48.630;9.000;2023-03-02T00:43:12;-0.70;99.90
5786;DHT22;2919;48.630;9.000;2023-03-02T00:45:37;-0.70;99.90
5786;DHT22;2919;48.630;9.000;2023-03-02T00:48:03;-0.80;99.90
5786;DHT22;2919;48.630;9.000;2023-03-02T00:50:29;-0.80;99.90
5786;DHT22;2919;48.630;9.000;2023-03-02T00:52:54;-0.90;99.90
5786;DHT22;2919;48.630;9.000;2023-03-02T00:55:20;-0.80;99.90
5786;DHT22;2919;48.630;9.000;2023-03-02T00:57:46;-0.80;99.90
5786;DHT22;2919;48.630;9.000;2023-03-02T01:00:22;-0.80;99.90
5786;DHT22;2919;48.630;9.000;2023-03-02T01:02:49;-0.90;99.90
5786;DHT22;2919;48.630;9.000;2023-03-02T01:05:15;-0.90;99.90
5786;DHT22;2919;48.630;9.000;2023-03-02T01:07:41;-0.90;99.90
5786;DHT22;2919;48.630;9.000;2023-03-02T01:10:08;-1.00;99.90
5786;DHT22;2919;48.630;9.000;2023-03-02T01:12:34;-1.00;99.90
5786;DHT22;2919;48.630;9.000;2023-03-02T01:14:59;-1.00;99.90
5786;DHT22;2919;48.630;9.000;2023-03-02T01:17:25;-1.10;99.90
5786;DHT22;2919;48.630;9.000;2023-03-02T01:19:51;-1.10;99.90
5786;DHT22;2919;48.630;9.000;2023-03-02T01:22:18;-1.10;99.90
5786;DHT22;2919;48.630;9.000;2023-03-02T01:24:44;-1.10;99.90
5786;DHT22;2919;48.630;9.000;2023-03-02T01:27:10;-1.10;99.90
5786;DHT22;2919;48.630;9.000;2023-03-02T01:29:36;-1.20;99.90
5786;DHT22;2919;48.630;9.000;2023-03-02T01:32:02;-1.20;99.90
5786;DHT22;2919;48.630;9.000;2023-03-02T01:34:28;-1.20;99.90
5786;DHT22;2919;48.630;9.000;2023-03-02T01:36:54;-1.20;99.90
5786;DHT22;2919;48.630;9.000;2023-03-02T01:39:20;-1.30;99.90
5786;DHT22;2919;48.630;9.000;2023-03-02T01:41:48;-1.20;99.90
5786;DHT22;2919;48.630;9.000;2023-03-02T01:44:33;-1.30;99.90
5786;DHT22;2919;48.630;9.000;2023-03-02T01:46:59;-1.30;99.90
5786;DHT22;2919;48.630;9.000;2023-03-02T01:49:26;-1.40;99.90
5786;DHT22;2919;48.630;9.000;2023-03-02T01:51:52;-1.40;99.90
5786;DHT22;2919;48.630;9.000;2023-03-02T01:54:20;-1.50;99.90
5786;DHT22;2919;48.630;9.000;2023-03-02T01:56:49;-1.40;99.90
5786;DHT22;2919;48.630;9.000;2023-03-02T01:59:18;-1.50;99.90
5786;DHT22;2919;48.630;9.000;2023-03-02T02:01:48;-1.50;99.90
5786;DHT22;2919;48.630;9.000;2023-03-02T02:04:16;-1.50;99.90
5786;DHT22;2919;48.630;9.000;2023-03-02T02:06:47;-1.50;99.90
5786;DHT22;2919;48.630;9.000;2023-03-02T02:09:15;-1.60;99.90
5786;DHT22;2919;48.630;9.000;2023-03-02T02:11:42;-1.60;99.90
5786;DHT22;2919;48.630;9.000;2023-03-02T02:14:08;-1.60;99.90
5786;DHT22;2919;48.630;9.000;2023-03-02T02:16:36;-1.60;99.90
5786;DHT22;2919;48.630;9.000;2023-03-02T02:19:04;-1.60;99.90
5786;DHT22;2919;48.630;9.000;2023-03-02T02:21:35;-1.60;99.90
5786;DHT22;2919;48.630;9.000;2023-03-02T02:24:10;-1.60;99.90
5786;DHT22;2919;48.630;9.000;2023-03-02T02:26:44;-1.70;99.90
5786;DHT22;2919;48.630;9.000;2023-03-02T02:29:17;-1.70;99.90
5786;DHT22;2919;48.630;9.000;2023-03-02T02:34:22;-1.70;99.90
5786;DHT22;2919;48.630;9.000;2023-03-02T02:36:53;-1.70;99.90
5786;DHT22;2919;48.630;9.000;2023-03-02T02:39:24;-1.60;99.90
5786;DHT22;2919;48.630;9.000;2023-03-02T02:41:54;-1.70;99.90
5786;DHT22;2919;48.630;9.000;2023-03-02T02:44:21;-1.70;99.90
5786;DHT22;2919;48.630;9.000;2023-03-02T02:46:46;-1.60;99.90
5786;DHT22;2919;48.630;9.000;2023-03-02T02:51:56;-1.70;99.90
5786;DHT22;2919;48.630;9.000;2023-03-02T02:54:23;-1.70;99.90
5786;DHT22;2919;48.630;9.000;2023-03-02T02:56:49;-1.70;99.90
5786;DHT22;2919;48.630;9.000;2023-03-02T02:59:25;-1.80;99.90
5786;DHT22;2919;48.630;9.000;2023-03-02T03:01:54;-1.80;99.90
5786;DHT22;2919;48.630;9.000;2023-03-02T03:04:24;-1.70;99.90
5786;DHT22;2919;48.630;9.000;2023-03-02T03:06:56;-1.70;99.90
5786;DHT22;2919;48.630;9.000;2023-03-02T03:09:23;-1.70;99.90
5786;DHT22;2919;48.630;9.000;2023-03-02T03:11:51;-1.70;99.90
5786;DHT22;2919;48.630;9.000;2023-03-02T03:14:29;-1.70;99.90
5786;DHT22;2919;48.630;9.000;2023-03-02T03:16:58;-1.80;99.90
5786;DHT22;2919;48.630;9.000;2023-03-02T03:19:30;-1.80;99.90
5786;DHT22;2919;48.630;9.000;2023-03-02T03:22:00;-1.90;99.90
5786;DHT22;2919;48.630;9.000;2023-03-02T03:24:28;-1.90;99.90
5786;DHT22;2919;48.630;9.000;2023-03-02T03:26:54;-1.90;99.90
5786;DHT22;2919;48.630;9.000;2023-03-02T03:29:22;-2.00;99.90
5786;DHT22;2919;48.630;9.000;2023-03-02T03:31:49;-2.00;99.90
5786;DHT22;2919;48.630;9.000;2023-03-02T03:34:15;-2.00;99.90
5786;DHT22;2919;48.630;9.000;2023-03-02T03:36:42;-2.00;99.90
5786;DHT22;2919;48.630;9.000;2023-03-02T03:39:08;-2.00;99.90
5786;DHT22;2919;48.630;9.000;2023-03-02T03:41:33;-2.00;99.90
5786;DHT22;2919;48.630;9.000;2023-03-02T03:43:59;-1.90;99.90
5786;DHT22;2919;48.630;9.000;2023-03-02T03:46:25;-1.90;99.90
5786;DHT22;2919;48.630;9.000;2023-03-02T03:48:51;-2.00;99.90
5786;DHT22;2919;48.630;9.000;2023-03-02T03:51:16;-2.00;99.90
5786;DHT22;2919;48.630;9.000;2023-03-02T03:53:42;-2.00;99.90
5786;DHT22;2919;48.630;9.000;2023-03-02T03:56:08;-2.00;99.90
5786;DHT22;2919;48.630;9.000;2023-03-02T03:58:34;-2.00;99.90
5786;DHT22;2919;48.630;9.000;2023-03-02T04:01:00;-2.00;99.90
5786;DHT22;2919;48.630;9.000;2023-03-02T04:03:25;-2.10;99.90
5786;DHT22;2919;48.630;9.000;2023-03-02T04:05:51;-2.10;99.90
5786;DHT22;2919;48.630;9.000;2023-03-02T04:08:18;-2.10;99.90
5786;DHT22;2919;48.630;9.000;2023-03-02T04:10:44;-2.10;99.90
5786;DHT22;2919;48.630;9.000;2023-03-02T04:13:10;-2.00;99.90
5786;DHT22;2919;48.630;9.000;2023-03-02T04:15:36;-2.00;99.90
5786;DHT22;2919;48.630;9.000;2023-03-02T04:18:02;-2.00;99.90
5786;DHT22;2919;48.630;9.000;2023-03-02T04:20:28;-1.90;99.90
5786;DHT22;2919;48.630;9.000;2023-03-02T04:22:56;-1.90;99.90
5786;DHT22;2919;48.630;9.000;2023-03-02T04:25:24;-1.80;99.90
5786;DHT22;2919;48.630;9.000;2023-03-02T04:27:51;-1.80;99.90
5786;DHT22;2919;48.630;9.000;2023-03-02T04:30:20;-1.80;99.90
5786;DHT22;2919;48.630;9.000;2023-03-02T04:32:46;-1.80;99.90
5786;DHT22;2919;48.630;9.000;2023-03-02T04:35:12;-1.80;99.90
5786;DHT22;2919;48.630;9.000;2023-03-02T04:37:39;-1.80;99.90
5786;DHT22;2919;48.630;9.000;2023-03-02T04:40:06;-1.80;99.90
5786;DHT22;2919;48.630;9.000;2023-03-02T04:42:32;-1.90;99.90
5786;DHT22;2919;48.630;9.000;2023-03-02T04:44:58;-1.90;99.90
5786;DHT22;2919;48.630;9.000;2023-03-02T04:47:23;-1.90;99.90
5786;DHT22;2919;48.630;9.000;2023-03-02T04:49:49;-1.90;99.90
5786;DHT22;2919;48.630;9.000;2023-03-02T04:52:19;-1.90;99.90
5786;DHT22;2919;48.630;9.000;2023-03-02T04:54:45;-1.90;99.90
5786;DHT22;2919;48.630;9.000;2023-03-02T04:57:10;-1.90;99.90
5786;DHT22;2919;48.630;9.000;2023-03-02T04:59:36;-1.90;99.90
5786;DHT22;2919;48.630;9.000;2023-03-02T05:02:02;-1.90;99.90
5786;DHT22;2919;48.630;9.000;2023-03-02T05:04:28;-1.80;99.90
5786;DHT22;2919;48.630;9.000;2023-03-02T05:06:54;-1.80;99.90
5786;DHT22;2919;48.630;9.000;2023-03-02T05:09:20;-1.80;99.90
5786;DHT22;2919;48.630;9.000;2023-03-02T05:11:52;-1.70;99.90
5786;DHT22;2919;48.630;9.000;2023-03-02T05:14:18;-1.70;99.90
5786;DHT22;2919;48.630;9.000;2023-03-02T05:16:44;-1.60;99.90
5786;DHT22;2919;48.630;9.000;2023-03-02T05:19:10;-1.60;99.90
5786;DHT22;2919;48.630;9.000;2023-03-02T05:21:36;-1.50;99.90
5786;DHT22;2919;48.630;9.000;2023-03-02T05:24:02;-1.50;99.90
5786;DHT22;2919;48.630;9.000;2023-03-02T05:26:28;-1.40;99.90
5786;DHT22;2919;48.630;9.000;2023-03-02T05:28:54;-1.40;99.90
5786;DHT22;2919;48.630;9.000;2023-03-02T05:33:51;-1.40;99.90
5786;DHT22;2919;48.630;9.000;2023-03-02T05:36:17;-1.40;99.90
5786;DHT22;2919;48.630;9.000;2023-03-02T05:38:43;-1.40;99.90
5786;DHT22;2919;48.630;9.000;2023-03-02T05:41:08;-1.40;99.90
5786;DHT22;2919;48.630;9.000;2023-03-02T05:43:34;-1.40;99.90
5786;DHT22;2919;48.630;9.000;2023-03-02T05:46:01;-1.40;99.90
5786;DHT22;2919;48.630;9.000;2023-03-02T05:48:28;-1.30;99.90
5786;DHT22;2919;48.630;9.000;2023-03-02T05:50:54;-1.30;99.90
5786;DHT22;2919;48.630;9.000;2023-03-02T05:53:19;-1.30;99.90
5786;DHT22;2919;48.630;9.000;2023-03-02T05:55:45;-1.30;99.90
5786;DHT22;2919;48.630;9.000;2023-03-02T05:58:13;-1.30;99.90
5786;DHT22;2919;48.630;9.000;2023-03-02T06:00:40;-1.30;99.90
5786;DHT22;2919;48.630;9.000;2023-03-02T06:03:05;-1.30;99.90
5786;DHT22;2919;48.630;9.000;2023-03-02T06:05:31;-1.30;99.90
5786;DHT22;2919;48.630;9.000;2023-03-02T06:07:56;-1.20;99.90
5786;DHT22;2919;48.630;9.000;2023-03-02T06:10:22;-1.20;99.90
5786;DHT22;2919;48.630;9.000;2023-03-02T06:12:48;-1.20;99.90
5786;DHT22;2919;48.630;9.000;2023-03-02T06:15:14;-1.20;99.90
5786;DHT22;2919;48.630;9.000;2023-03-02T06:17:40;-1.20;99.90
5786;DHT22;2919;48.630;9.000;2023-03-02T06:20:06;-1.20;99.90
5786;DHT22;2919;48.630;9.000;2023-03-02T06:22:37;-1.20;99.90
5786;DHT22;2919;48.630;9.000;2023-03-02T06:25:09;-1.20;99.90
5786;DHT22;2919;48.630;9.000;2023-03-02T06:27:36;-1.10;99.90
5786;DHT22;2919;48.630;9.000;2023-03-02T06:30:03;-1.10;99.90
5786;DHT22;2919;48.630;9.000;2023-03-02T06:32:29;-1.10;99.90
5786;DHT22;2919;48.630;9.000;2023-03-02T06:34:59;-1.10;99.90
5786;DHT22;2919;48.630;9.000;2023-03-02T06:37:25;-1.10;99.90
5786;DHT22;2919;48.630;9.000;2023-03-02T06:39:55;-1.00;99.90
5786;DHT22;2919;48.630;9.000;2023-03-02T06:42:22;-1.00;99.90
5786;DHT22;2919;48.630;9.000;2023-03-02T06:44:48;-1.00;99.90
5786;DHT22;2919;48.630;9.000;2023-03-02T06:47:15;-1.00;99.90
5786;DHT22;2919;48.630;9.000;2023-03-02T06:49:41;-0.90;99.90
5786;DHT22;2919;48.630;9.000;2023-03-02T06:52:06;-0.90;99.90
5786;DHT22;2919;48.630;9.000;2023-03-02T06:54:32;-0.90;99.90
5786;DHT22;2919;48.630;9.000;2023-03-02T06:56:58;-0.80;99.90
5786;DHT22;2919;48.630;9.000;2023-03-02T06:59:24;-0.80;99.90
5786;DHT22;2919;48.630;9.000;2023-03-02T07:01:49;-0.80;99.90
5786;DHT22;2919;48.630;9.000;2023-03-02T07:04:16;-0.80;99.90
5786;DHT22;2919;48.630;9.000;2023-03-02T07:06:42;-0.80;99.90
5786;DHT22;2919;48.630;9.000;2023-03-02T07:09:08;-0.70;99.90
5786;DHT22;2919;48.630;9.000;2023-03-02T07:11:34;-0.70;99.90
5786;DHT22;2919;48.630;9.000;2023-03-02T07:13:59;-0.60;99.90
5786;DHT22;2919;48.630;9.000;2023-03-02T07:16:25;-0.50;99.90
5786;DHT22;2919;48.630;9.000;2023-03-02T07:18:51;-0.50;99.90
5786;DHT22;2919;48.630;9.000;2023-03-02T07:21:19;-0.40;99.90
5786;DHT22;2919;48.630;9.000;2023-03-02T07:23:45;-0.40;99.90
5786;DHT22;2919;48.630;9.000;2023-03-02T07:26:10;-0.30;99.90
5786;DHT22;2919;48.630;9.000;2023-03-02T07:28:37;-0.20;99.90
5786;DHT22;2919;48.630;9.000;2023-03-02T07:31:08;-0.20;99.90
5786;DHT22;2919;48.630;9.000;2023-03-02T07:33:34;-0.20;99.90
5786;DHT22;2919;48.630;9.000;2023-03-02T07:36:00;-0.10;99.90
5786;DHT22;2919;48.630;9.000;2023-03-02T07:38:26;0.00;99.90
5786;DHT22;2919;48.630;9.000;2023-03-02T07:40:52;0.10;99.90
5786;DHT22;2919;48.630;9.000;2023-03-02T07:43:18;0.10;99.90
5786;DHT22;2919;48.630;9.000;2023-03-02T07:45:44;0.20;99.90
5786;DHT22;2919;48.630;9.000;2023-03-02T07:48:09;0.20;99.90
5786;DHT22;2919;48.630;9.000;2023-03-02T07:50:35;0.30;99.90
5786;DHT22;2919;48.630;9.000;2023-03-02T07:53:01;0.30;99.90
5786;DHT22;2919;48.630;9.000;2023-03-02T07:55:27;0.40;99.90
5786;DHT22;2919;48.630;9.000;2023-03-02T07:57:52;0.50;99.90
5786;DHT22;2919;48.630;9.000;2023-03-02T08:00:19;0.50;99.90
5786;DHT22;2919;48.630;9.000;2023-03-02T08:02:45;0.60;99.90
5786;DHT22;2919;48.630;9.000;2023-03-02T08:05:11;0.50;99.90
5786;DHT22;2919;48.630;9.000;2023-03-02T08:07:37;0.40;99.90
5786;DHT22;2919;48.630;9.000;2023-03-02T08:10:03;0.40;99.90
5786;DHT22;2919;48.630;9.000;2023-03-02T08:12:29;0.40;99.90
5786;DHT22;2919;48.630;9.000;2023-03-02T08:14:55;0.40;99.90
5786;DHT22;2919;48.630;9.000;2023-03-02T08:17:21;0.50;99.90
5786;DHT22;2919;48.630;9.000;2023-03-02T08:19:47;0.50;99.90
5786;DHT22;2919;48.630;9.000;2023-03-02T08:22:13;0.60;99.90
5786;DHT22;2919;48.630;9.000;2023-03-02T08:24:38;0.60;99.90
5786;DHT22;2919;48.630;9.000;2023-03-02T08:27:06;0.70;99.90
5786;DHT22;2919;48.630;9.000;2023-03-02T08:29:32;0.70;99.90
5786;DHT22;2919;48.630;9.000;2023-03-02T08:31:58;0.80;99.90
5786;DHT22;2919;48.630;9.000;2023-03-02T08:34:24;0.80;99.90
5786;DHT22;2919;48.630;9.000;2023-03-02T08:36:51;0.90;99.90
5786;DHT22;2919;48.630;9.000;2023-03-02T08:39:17;0.90;99.90
5786;DHT22;2919;48.630;9.000;2023-03-02T08:41:42;1.00;99.90
5786;DHT22;2919;48.630;9.000;2023-03-02T08:44:08;1.00;99.90
5786;DHT22;2919;48.630;9.000;2023-03-02T08:46:34;1.10;99.90
5786;DHT22;2919;48.630;9.000;2023-03-02T08:48:59;1.20;99.90
5786;DHT22;2919;48.630;9.000;2023-03-02T08:51:25;1.30;99.90
5786;DHT22;2919;48.630;9.000;2023-03-02T08:53:53;1.30;99.90
5786;DHT22;2919;48.630;9.000;2023-03-02T08:56:34;1.40;99.90
5786;DHT22;2919;48.630;9.000;2023-03-02T08:59:17;1.40;99.90
5786;DHT22;2919;48.630;9.000;2023-03-02T09:01:43;1.50;99.90
5786;DHT22;2919;48.630;9.000;2023-03-02T09:04:09;1.60;99.90
5786;DHT22;2919;48.630;9.000;2023-03-02T09:06:38;1.60;99.90
5786;DHT22;2919;48.630;9.000;2023-03-02T09:09:04;1.50;99.90
5786;DHT22;2919;48.630;9.000;2023-03-02T09:11:30;1.50;99.90
5786;DHT22;2919;48.630;9.000;2023-03-02T09:13:55;1.50;99.90
5786;DHT22;2919;48.630;9.000;2023-03-02T09:16:21;1.50;99.90
5786;DHT22;2919;48.630;9.000;2023-03-02T09:18:50;1.60;99.90
5786;DHT22;2919;48.630;9.000;2023-03-02T09:21:16;1.60;99.90
5786;DHT22;2919;48.630;9.000;2023-03-02T09:23:41;1.70;99.90
5786;DHT22;2919;48.630;9.000;2023-03-02T09:26:07;1.70;99.90
5786;DHT22;2919;48.630;9.000;2023-03-02T09:28:33;1.80;99.90
5786;DHT22;2919;48.630;9.000;2023-03-02T09:31:02;1.90;99.90
5786;DHT22;2919;48.630;9.000;2023-03-02T09:33:29;1.90;99.90
5786;DHT22;2919;48.630;9.000;2023-03-02T09:35:55;2.00;99.90
5786;DHT22;2919;48.630;9.000;2023-03-02T09:38:21;2.00;99.90
5786;DHT22;2919;48.630;9.000;2023-03-02T09:43:42;2.10;99.90
5786;DHT22;2919;48.630;9.000;2023-03-02T09:49:20;2.20;99.90
5786;DHT22;2919;48.630;9.000;2023-03-02T09:52:07;2.30;99.90
5786;DHT22;2919;48.630;9.000;2023-03-02T09:54:34;2.40;99.90
5786;DHT22;2919;48.630;9.000;2023-03-02T09:57:02;2.40;99.90
5786;DHT22;2919;48.630;9.000;2023-03-02T09:59:42;2.50;99.90
5786;DHT22;2919;48.630;9.000;2023-03-02T10:04:57;2.60;99.90
5786;DHT22;2919;48.630;9.000;2023-03-02T10:07:31;2.60;99.90
5786;DHT22;2919;48.630;9.000;2023-03-02T10:15:35;2.90;99.90
5786;DHT22;2919;48.630;9.000;2023-03-02T10:18:19;2.90;99.90
5786;DHT22;2919;48.630;9.000;2023-03-02T10:21:18;3.00;99.90
5786;DHT22;2919;48.630;9.000;2023-03-02T10:23:50;3.10;99.90
5786;DHT22;2919;48.630;9.000;2023-03-02T10:31:32;3.40;99.90
5786;DHT22;2919;48.630;9.000;2023-03-02T10:33:59;3.50;99.90
5786;DHT22;2919;48.630;9.000;2023-03-02T10:36:27;3.60;99.90
5786;DHT22;2919;48.630;9.000;2023-03-02T10:38:54;3.50;99.90
5786;DHT22;2919;48.630;9.000;2023-03-02T10:41:45;3.60;99.90
5786;DHT22;2919;48.630;9.000;2023-03-02T10:44:28;3.80;99.90
5786;DHT22;2919;48.630;9.000;2023-03-02T10:46:54;4.00;99.90
5786;DHT22;2919;48.630;9.000;2023-03-02T10:49:26;4.00;99.90
5786;DHT22;2919;48.630;9.000;2023-03-02T10:52:19;4.20;99.90
5786;DHT22;2919;48.630;9.000;2023-03-02T10:54:43;4.10;99.90
5786;DHT22;2919;48.630;9.000;2023-03-02T10:57:41;4.30;99.90
5786;DHT22;2919;48.630;9.000;2023-03-02T11:00:21;4.20;99.90
5786;DHT22;2919;48.630;9.000;2023-03-02T11:02:55;4.20;99.90
5786;DHT22;2919;48.630;9.000;2023-03-02T11:05:38;4.20;99.90
5786;DHT22;2919;48.630;9.000;2023-03-02T11:08:25;4.40;99.90
5786;DHT22;2919;48.630;9.000;2023-03-02T11:10:59;4.50;99.90
5786;DHT22;2919;48.630;9.000;2023-03-02T11:13:36;4.50;99.90
5786;DHT22;2919;48.630;9.000;2023-03-02T11:16:05;4.60;99.90
5786;DHT22;2919;48.630;9.000;2023-03-02T11:18:56;4.50;99.90
5786;DHT22;2919;48.630;9.000;2023-03-02T11:24:36;4.40;99.90
5786;DHT22;2919;48.630;9.000;2023-03-02T11:27:07;4.50;99.90
5786;DHT22;2919;48.630;9.000;2023-03-02T11:29:42;4.80;99.90
5786;DHT22;2919;48.630;9.000;2023-03-02T11:32:21;4.80;99.90
5786;DHT22;2919;48.630;9.000;2023-03-02T11:37:38;5.00;99.90
5786;DHT22;2919;48.630;9.000;2023-03-02T11:40:34;5.10;99.90
5786;DHT22;2919;48.630;9.000;2023-03-02T11:43:03;5.40;99.90
5786;DHT22;2919;48.630;9.000;2023-03-02T11:45:33;5.30;99.90
5786;DHT22;2919;48.630;9.000;2023-03-02T11:48:11;5.40;99.50
5786;DHT22;2919;48.630;9.000;2023-03-02T11:50:55;5.40;99.70
5786;DHT22;2919;48.630;9.000;2023-03-02T11:53:29;5.30;99.90
5786;DHT22;2919;48.630;9.000;2023-03-02T11:55:56;5.40;99.70
5786;DHT22;2919;48.630;9.000;2023-03-02T11:58:24;5.30;99.80
5786;DHT22;2919;48.630;9.000;2023-03-02T12:00:52;5.40;99.50
5786;DHT22;2919;48.630;9.000;2023-03-02T12:06:27;5.50;99.90
5786;DHT22;2919;48.630;9.000;2023-03-02T12:08:54;5.50;99.00
5786;DHT22;2919;48.630;9.000;2023-03-02T12:11:37;5.50;99.60
5786;DHT22;2919;48.630;9.000;2023-03-02T12:14:41;5.60;99.00
5786;DHT22;2919;48.630;9.000;2023-03-02T12:20:22;5.40;99.80
5786;DHT22;2919;48.630;9.000;2023-03-02T12:22:48;5.50;99.90
5786;DHT22;2919;48.630;9.000;2023-03-02T12:27:43;5.60;99.50
5786;DHT22;2919;48.630;9.000;2023-03-02T12:35:25;5.60;99.50
5786;DHT22;2919;48.630;9.000;2023-03-02T12:38:01;5.60;99.50
5786;DHT22;2919;48.630;9.000;2023-03-02T12:44:20;5.60;99.50
5786;DHT22;2919;48.630;9.000;2023-03-02T12:46:48;5.80;99.30
5786;DHT22;2919;48.630;9.000;2023-03-02T12:52:28;5.70;99.00
5786;DHT22;2919;48.630;9.000;2023-03-02T12:57:36;5.70;99.10
5786;DHT22;2919;48.630;9.000;2023-03-02T13:00:03;5.70;99.00
5786;DHT22;2919;48.630;9.000;2023-03-02T13:02:33;5.80;99.30
5786;DHT22;2919;48.630;9.000;2023-03-02T13:05:00;5.70;99.50
5786;DHT22;2919;48.630;9.000;2023-03-02T13:15:56;6.40;98.30
5786;DHT22;2919;48.630;9.000;2023-03-02T13:18:24;6.40;99.30
5786;DHT22;2919;48.630;9.000;2023-03-02T13:20:50;6.30;98.50
5786;DHT22;2919;48.630;9.000;2023-03-02T13:23:17;6.40;98.40
5786;DHT22;2919;48.630;9.000;2023-03-02T13:28:28;6.10;98.50
5786;DHT22;2919;48.630;9.000;2023-03-02T13:30:56;6.00;98.60
5786;DHT22;2919;48.630;9.000;2023-03-02T13:33:26;6.00;98.80
5786;DHT22;2919;48.630;9.000;2023-03-02T13:35:52;6.20;99.50
5786;DHT22;2919;48.630;9.000;2023-03-02T13:38:19;6.30;98.80
5786;DHT22;2919;48.630;9.000;2023-03-02T13:40:47;6.30;98.70
5786;DHT22;2919;48.630;9.000;2023-03-02T13:45:53;6.60;98.80
5786;DHT22;2919;48.630;9.000;2023-03-02T13:48:19;6.70;98.40
5786;DHT22;2919;48.630;9.000;2023-03-02T13:50:58;6.80;98.00
5786;DHT22;2919;48.630;9.000;2023-03-02T13:53:25;6.90;97.80
5786;DHT22;2919;48.630;9.000;2023-03-02T13:55:52;6.80;97.60
5786;DHT22;2919;48.630;9.000;2023-03-02T13:58:20;6.60;97.60
5786;DHT22;2919;48.630;9.000;2023-03-02T14:00:47;6.50;98.70
